KANQ

Tri-State Steuben County Airport

Angola, Indiana, USA
METAR KANQ 261315Z AUTO 00000KT 1/4SM FG OVC003 05/05 A2995 RMK AO2 TSNO
Observed Flight Rules
Apr-26 @ 13:15 UTC (24 minutes ago) Instrument Flight Rules
Visibility Clouds Conditions
1/4 miles
  • Overcast at 300' AGL
  • Fog
Temperatures Readings
Current 5°C / 41°F
Dewpoint 5°C / 41°F
Humidity 100%
Altimeter 29.95" Hg
Pressure 1014 hPa
Elevation 303
METAR KANQ 261315Z AUTO 00000KT 1/4SM FG OVC003 05/05 A2995 RMK AO2 TSNO
Observed Flight Rules
Apr-26 @ 13:15 UTC
(24 minutes ago)
LIFR
Clouds
  • Overcast at 300' AGL
Conditions
  • Fog
Temperature Dewpoint
5°C / 41°F 5°C / 41°F
Humidity Altimeter Pressure
100% 29.95" Hg 1014 hPa